Terminal Aerodrome Forecast
Issued by NWS Jacksonville, FL

Home | Current Version | Previous Version | Text Only | Print | Product List | Glossary On
Versions: 1 2 3 4 5 6 7 8 9 10 11 12 13 14
000
FTUS42 KJAX 230724 AAA
TAFGNV
TAF AMD
KGNV 230724Z 2307/2406 02004KT P6SM SCT020
      TEMPO 2307/2310 BKN020
     FM231400 06008G15KT P6SM VCSH SCT025 BKN035 OVC070
     FM231600 07010G17KT P6SM SHRA VCTS BKN030CB=

USA.gov is the U.S. government's official web portal to all federal, state and local government web resources and services.